Time;durP1;ratioP1;P1;durP2;ratioP2;P2;SDS_P1;SDS_P2;PMS_P1;PMS_P2;Temp;Humidity;BMP_temperature;BMP_pressure;BME280_temperature;BME280_humidity;BME280_pressure;Samples;Min_cycle;Max_cycle;Signal;HPM_P1;HPM_P2
2022/07/27 00:01:07;;;;;;;1.02;0.43;;;21.50;78.90;;;;;;4947856;29;20174;-81
2022/07/27 00:03:34;;;;;;;0.73;0.10;;;21.50;78.40;;;;;;4938629;29;20041;-78
2022/07/27 00:06:02;;;;;;;0.88;0.10;;;21.50;77.80;;;;;;4939816;29;20036;-75
2022/07/27 00:08:29;;;;;;;1.45;0.20;;;21.80;78.10;;;;;;4940616;29;20027;-78
2022/07/27 00:10:57;;;;;;;1.10;0.40;;;21.70;77.20;;;;;;4941083;29;20059;-83
2022/07/27 00:13:24;;;;;;;2.78;0.20;;;21.90;77.50;;;;;;4948768;29;20347;-79
2022/07/27 00:15:52;;;;;;;0.85;0.45;;;21.90;76.10;;;;;;4934449;29;20063;-80
2022/07/27 00:18:19;;;;;;;0.75;0.17;;;22.00;76.90;;;;;;4940930;28;20028;-80
2022/07/27 00:20:47;;;;;;;0.82;0.60;;;22.20;75.80;;;;;;4942363;29;20027;-80
2022/07/27 00:23:15;;;;;;;3.60;0.50;;;22.40;75.60;;;;;;4934318;29;20118;-76
2022/07/27 00:25:42;;;;;;;1.42;0.70;;;22.50;75.50;;;;;;4935075;29;20103;-79
2022/07/27 00:28:09;;;;;;;3.63;0.40;;;22.50;75.40;;;;;;4941842;28;20047;-80
2022/07/27 00:30:37;;;;;;;2.35;0.20;;;22.50;75.80;;;;;;4946677;29;20031;-83
2022/07/27 00:33:04;;;;;;;1.60;0.20;;;22.70;74.10;;;;;;4945139;28;20075;-84
2022/07/27 00:35:32;;;;;;;1.63;0.20;;;22.80;75.00;;;;;;4932828;28;20645;-81
2022/07/27 00:38:00;;;;;;;2.75;0.47;;;22.70;73.30;;;;;;4947049;28;20500;-80
2022/07/27 00:40:27;;;;;;;1.20;0.10;;;22.70;73.50;;;;;;4954255;28;20027;-81
2022/07/27 00:42:55;;;;;;;1.35;0.25;;;22.50;72.80;;;;;;4955767;29;20024;-89
2022/07/27 00:45:22;;;;;;;1.90;0.22;;;22.50;73.20;;;;;;4953291;28;20118;-81
2022/07/27 00:47:49;;;;;;;2.08;0.50;;;22.80;73.70;;;;;;4953727;28;20463;-86
2022/07/27 00:50:17;;;;;;;1.90;0.65;;;23.00;72.20;;;;;;4949814;28;20027;-83
2022/07/27 00:52:44;;;;;;;4.80;0.30;;;22.80;71.90;;;;;;4952818;28;20035;-80
2022/07/27 00:55:13;;;;;;;2.38;0.20;;;22.80;72.20;;;;;;4946827;28;20028;-84
2022/07/27 00:57:41;;;;;;;3.47;0.50;;;22.80;71.70;;;;;;4944023;29;20586;-80
2022/07/27 01:00:09;;;;;;;0.75;0.22;;;23.10;72.70;;;;;;4951037;28;20038;-86
2022/07/27 01:02:37;;;;;;;4.05;0.50;;;23.30;72.20;;;;;;4942340;29;20090;-84
2022/07/27 01:05:04;;;;;;;0.82;0.20;;;23.60;71.50;;;;;;4950996;29;20394;-84
2022/07/27 01:07:32;;;;;;;0.95;0.30;;;23.70;70.10;;;;;;4942205;29;20019;-85
2022/07/27 01:10:00;;;;;;;1.02;0.20;;;23.70;71.30;;;;;;4954765;28;20039;-87
2022/07/27 01:12:30;;;;;;;2.00;0.30;;;23.90;71.80;;;;;;4943050;28;20110;-87
2022/07/27 01:14:58;;;;;;;1.27;0.25;;;24.20;70.50;;;;;;4952646;29;20042;-86
2022/07/27 01:17:30;;;;;;;0.75;0.20;;;24.30;69.60;;;;;;4953995;28;20354;-83
2022/07/27 01:19:58;;;;;;;2.92;0.30;;;24.30;70.00;;;;;;4944309;29;20059;-83
2022/07/27 01:22:25;;;;;;;1.42;0.40;;;24.30;69.70;;;;;;4943686;28;20043;-79
2022/07/27 01:24:53;;;;;;;2.22;0.40;;;24.40;69.20;;;;;;4951263;29;20090;-89
2022/07/27 01:27:21;;;;;;;0.65;0.20;;;24.60;69.00;;;;;;4947167;28;20042;-87
2022/07/27 01:29:49;;;;;;;1.88;0.40;;;24.40;68.70;;;;;;4951367;28;20501;-81
2022/07/27 01:32:16;;;;;;;0.68;0.20;;;24.10;68.40;;;;;;4935001;29;20505;-79
2022/07/27 01:34:43;;;;;;;1.77;0.30;;;24.40;68.70;;;;;;4937483;28;20055;-81
2022/07/27 01:37:11;;;;;;;1.50;0.30;;;24.90;68.70;;;;;;4949970;28;20046;-81
2022/07/27 01:39:38;;;;;;;1.83;0.30;;;24.90;69.50;;;;;;4941949;29;20031;-81
2022/07/27 01:42:06;;;;;;;0.98;0.20;;;25.20;68.30;;;;;;4946740;29;20118;-80
2022/07/27 01:44:33;;;;;;;3.05;0.25;;;25.40;70.20;;;;;;4948923;29;20038;-76
2022/07/27 01:47:01;;;;;;;1.88;0.30;;;25.40;68.30;;;;;;4950875;28;20498;-77
2022/07/27 01:49:28;;;;;;;2.25;0.30;;;25.50;67.30;;;;;;4940637;28;20023;-82
2022/07/27 01:51:55;;;;;;;0.90;0.20;;;25.30;67.60;;;;;;4949420;29;20178;-76
2022/07/27 01:54:23;;;;;;;3.40;0.30;;;25.60;67.90;;;;;;4944764;28;20419;-81
2022/07/27 01:56:51;;;;;;;1.17;0.25;;;25.40;65.90;;;;;;4950927;29;20075;-82
2022/07/27 01:59:18;;;;;;;4.32;0.22;;;25.40;68.40;;;;;;4937177;28;20027;-86
2022/07/27 02:01:46;;;;;;;1.90;0.20;;;25.60;67.00;;;;;;4949495;29;20528;-78
2022/07/27 02:04:13;;;;;;;2.97;0.47;;;25.60;68.30;;;;;;4950493;29;20031;-76
2022/07/27 02:06:41;;;;;;;2.05;0.25;;;25.70;67.40;;;;;;4950806;29;20398;-76
2022/07/27 02:09:08;;;;;;;1.85;0.63;;;25.40;67.00;;;;;;4944449;29;20114;-79
2022/07/27 02:14:21;;;;;;;1.60;0.20;;;25.50;67.90;;;;;;4943648;28;20098;-76
2022/07/27 02:16:48;;;;;;;1.83;0.85;;;26.10;68.10;;;;;;4938767;29;20031;-78
2022/07/27 02:19:15;;;;;;;1.33;0.10;;;26.30;68.70;;;;;;4936270;29;20047;-79
2022/07/27 02:21:43;;;;;;;0.32;0.20;;;26.60;67.20;;;;;;4948719;29;20046;-79
2022/07/27 02:24:10;;;;;;;2.15;0.28;;;26.30;66.20;;;;;;4946257;29;20027;-78
2022/07/27 02:26:38;;;;;;;1.58;0.22;;;26.30;66.20;;;;;;4941491;29;20445;-75
2022/07/27 02:29:05;;;;;;;2.55;0.40;;;26.30;67.80;;;;;;4941606;28;20046;-76
2022/07/27 02:31:33;;;;;;;1.45;0.20;;;25.90;66.70;;;;;;4934368;29;20031;-80
2022/07/27 02:34:00;;;;;;;1.15;0.30;;;25.50;65.50;;;;;;4950530;29;20043;-80
2022/07/27 02:36:28;;;;;;;0.63;0.45;;;25.20;67.80;;;;;;4951440;28;20074;-78
2022/07/27 02:38:56;;;;;;;1.33;0.22;;;25.20;67.20;;;;;;4942787;28;20032;-79
2022/07/27 02:41:24;;;;;;;3.13;0.30;;;24.70;67.20;;;;;;4944008;28;20476;-83
2022/07/27 02:43:52;;;;;;;0.68;0.10;;;24.40;69.10;;;;;;4953233;29;20031;-77
2022/07/27 02:46:19;;;;;;;2.33;0.20;;;24.50;68.30;;;;;;4952239;28;20035;-79
2022/07/27 02:48:47;;;;;;;1.05;0.13;;;24.30;67.80;;;;;;4949087;28;20058;-85
2022/07/27 02:51:14;;;;;;;1.90;0.15;;;24.10;69.40;;;;;;4950978;28;20027;-78
2022/07/27 02:53:42;;;;;;;0.77;0.38;;;24.10;69.60;;;;;;4945248;29;20534;-86
2022/07/27 02:56:09;;;;;;;2.65;0.20;;;24.10;70.10;;;;;;4933867;29;20027;-78
2022/07/27 02:58:37;;;;;;;2.00;0.30;;;23.80;69.20;;;;;;4945903;29;20039;-77
2022/07/27 03:01:05;;;;;;;2.25;0.43;;;23.70;70.20;;;;;;4951047;28;20520;-82
2022/07/27 03:03:33;;;;;;;2.92;0.60;;;23.80;68.70;;;;;;4947792;29;20055;-84
2022/07/27 03:06:00;;;;;;;0.70;0.20;;;23.60;70.00;;;;;;4941485;29;20600;-84
2022/07/27 03:08:28;;;;;;;0.82;0.30;;;23.80;68.30;;;;;;4940913;28;20081;-84
2022/07/27 03:10:55;;;;;;;2.35;0.38;;;23.50;70.10;;;;;;4952671;28;20367;-80
2022/07/27 03:13:22;;;;;;;2.75;0.28;;;23.50;70.60;;;;;;4951201;28;20601;-79
2022/07/27 03:15:50;;;;;;;0.77;0.20;;;23.50;70.90;;;;;;4937547;28;20032;-76
2022/07/27 03:18:17;;;;;;;2.05;0.20;;;23.50;69.20;;;;;;4936849;29;20115;-83
2022/07/27 03:20:44;;;;;;;1.83;0.32;;;23.60;70.80;;;;;;4944359;29;20534;-76
2022/07/27 03:23:12;;;;;;;2.10;0.50;;;23.50;70.00;;;;;;4933231;29;20027;-81
2022/07/27 03:25:40;;;;;;;1.50;0.17;;;23.50;69.70;;;;;;4952977;29;20043;-77
2022/07/27 03:28:07;;;;;;;0.82;0.50;;;23.50;70.10;;;;;;4948883;29;20027;-81
2022/07/27 03:30:34;;;;;;;1.65;0.20;;;23.20;69.60;;;;;;4947140;29;20415;-77
2022/07/27 03:33:02;;;;;;;2.22;0.30;;;22.90;69.00;;;;;;4954610;28;20096;-82
2022/07/27 03:35:29;;;;;;;1.10;0.10;;;22.60;70.70;;;;;;4945675;28;20050;-83
2022/07/27 03:37:57;;;;;;;1.75;0.68;;;22.40;70.10;;;;;;4945795;28;20885;-77
2022/07/27 03:40:24;;;;;;;3.25;0.55;;;22.00;70.90;;;;;;4949085;29;20031;-77
2022/07/27 03:42:51;;;;;;;0.85;0.30;;;21.60;72.30;;;;;;4953585;28;20032;-77
2022/07/27 03:45:19;;;;;;;1.30;0.20;;;21.40;72.70;;;;;;4945146;28;20095;-75
2022/07/27 03:47:46;;;;;;;3.35;0.28;;;21.20;72.90;;;;;;4946717;28;20086;-87
2022/07/27 03:50:14;;;;;;;0.40;0.10;;;20.90;73.10;;;;;;4933911;29;20038;-77
2022/07/27 03:52:41;;;;;;;1.63;0.55;;;20.70;72.20;;;;;;4949188;29;20118;-78
2022/07/27 03:55:09;;;;;;;2.97;0.47;;;20.50;73.70;;;;;;4954472;28;20031;-81
2022/07/27 03:57:36;;;;;;;2.13;0.20;;;20.20;73.30;;;;;;4949598;28;20051;-76
2022/07/27 04:00:05;;;;;;;2.03;0.35;;;20.00;73.30;;;;;;4951913;28;20030;-75
2022/07/27 04:02:33;;;;;;;1.33;0.38;;;19.80;73.70;;;;;;4951185;28;20040;-79
2022/07/27 04:05:00;;;;;;;2.38;0.40;;;19.50;74.10;;;;;;4937187;28;20134;-80
2022/07/27 04:07:28;;;;;;;4.45;0.57;;;19.40;75.00;;;;;;4945578;29;20039;-79
2022/07/27 04:09:55;;;;;;;1.80;0.30;;;19.30;75.30;;;;;;4936844;29;20035;-75
2022/07/27 04:12:22;;;;;;;1.00;0.20;;;19.20;75.20;;;;;;4949624;28;20090;-75
2022/07/27 04:14:50;;;;;;;3.03;0.30;;;19.00;75.20;;;;;;4954010;29;20486;-75
2022/07/27 04:17:18;;;;;;;2.45;0.20;;;19.00;75.40;;;;;;4946440;28;20090;-75
2022/07/27 04:19:45;;;;;;;7.13;0.70;;;18.90;76.00;;;;;;4946005;28;20035;-77
2022/07/27 04:22:13;;;;;;;3.33;0.30;;;18.80;77.10;;;;;;4954692;28;20090;-78
2022/07/27 04:24:40;;;;;;;2.53;0.20;;;18.80;76.70;;;;;;4948134;28;20047;-76
2022/07/27 04:27:08;;;;;;;0.98;0.40;;;18.70;76.80;;;;;;4940667;28;20043;-87
2022/07/27 04:29:35;;;;;;;0.32;0.20;;;18.60;77.60;;;;;;4959313;28;20039;-86
2022/07/27 04:32:03;;;;;;;0.50;0.43;;;18.60;77.90;;;;;;4957462;28;20031;-84
2022/07/27 04:34:30;;;;;;;2.33;0.90;;;18.60;77.30;;;;;;4947321;28;20155;-78
2022/07/27 04:36:58;;;;;;;2.55;0.88;;;18.60;77.30;;;;;;4946930;28;20123;-83
2022/07/27 04:39:25;;;;;;;1.77;0.40;;;18.50;77.70;;;;;;4948583;28;20046;-83
2022/07/27 04:41:52;;;;;;;4.13;0.20;;;18.50;77.20;;;;;;4953524;28;20031;-77
2022/07/27 04:44:20;;;;;;;0.73;0.28;;;18.50;77.50;;;;;;4945557;29;20108;-78
2022/07/27 04:46:47;;;;;;;2.72;0.30;;;18.30;77.90;;;;;;4955519;28;20038;-84
2022/07/27 04:49:15;;;;;;;3.30;0.35;;;18.30;78.40;;;;;;4950102;28;20039;-85
2022/07/27 04:51:45;;;;;;;3.00;0.32;;;18.20;79.00;;;;;;4951802;28;20034;-83
2022/07/27 04:54:12;;;;;;;1.75;0.70;;;18.20;79.20;;;;;;4953927;28;20082;-85
2022/07/27 04:56:40;;;;;;;2.92;0.50;;;18.20;79.20;;;;;;4956093;29;20039;-76
2022/07/27 04:59:08;;;;;;;1.50;0.82;;;18.10;78.10;;;;;;4954466;29;20106;-88
2022/07/27 05:01:35;;;;;;;3.47;0.85;;;18.10;78.80;;;;;;4939672;28;20035;-85
2022/07/27 05:04:03;;;;;;;2.35;0.38;;;18.00;78.80;;;;;;4953177;28;21450;-77
2022/07/27 05:06:32;;;;;;;0.85;0.32;;;18.00;79.20;;;;;;4940589;28;20069;-84
2022/07/27 05:09:00;;;;;;;5.85;0.60;;;18.00;79.20;;;;;;4937455;29;20554;-80
2022/07/27 05:11:27;;;;;;;3.00;0.30;;;18.00;79.10;;;;;;4950503;29;20482;-81
2022/07/27 05:13:54;;;;;;;0.55;0.20;;;17.90;77.90;;;;;;4949352;28;20024;-84
2022/07/27 05:16:22;;;;;;;7.30;0.52;;;17.90;79.60;;;;;;4954023;28;20039;-83
2022/07/27 05:18:49;;;;;;;4.85;0.95;;;17.90;79.40;;;;;;4947181;28;20046;-80
2022/07/27 05:21:17;;;;;;;2.90;0.68;;;17.80;79.60;;;;;;4949464;28;20027;-84
2022/07/27 05:23:44;;;;;;;1.98;0.22;;;17.80;79.60;;;;;;4951029;28;20240;-82
2022/07/27 05:26:11;;;;;;;1.13;0.47;;;17.70;79.80;;;;;;4952714;28;20134;-84
2022/07/27 05:28:39;;;;;;;2.13;0.40;;;17.70;79.80;;;;;;4948033;29;20031;-84
2022/07/27 05:31:06;;;;;;;1.77;0.60;;;17.70;80.30;;;;;;4936933;28;20368;-84
2022/07/27 05:33:34;;;;;;;1.70;0.40;;;17.70;80.70;;;;;;4945242;28;20482;-77
2022/07/27 05:36:01;;;;;;;3.88;0.38;;;17.70;80.70;;;;;;4947873;28;20124;-79
2022/07/27 05:38:28;;;;;;;3.38;0.50;;;17.70;79.90;;;;;;4951818;28;20363;-79
2022/07/27 05:40:56;;;;;;;3.50;1.05;;;17.70;80.10;;;;;;4950805;28;20114;-83
2022/07/27 05:43:23;;;;;;;1.50;0.60;;;17.70;80.00;;;;;;4935866;29;20031;-82
2022/07/27 05:45:51;;;;;;;1.40;0.40;;;17.70;79.60;;;;;;4954406;28;20118;-80
2022/07/27 05:48:18;;;;;;;2.05;0.65;;;17.70;79.70;;;;;;4949374;28;20015;-79
2022/07/27 05:50:45;;;;;;;5.03;1.17;;;17.70;80.30;;;;;;4955313;29;20087;-81
2022/07/27 05:53:13;;;;;;;2.60;0.57;;;17.70;80.30;;;;;;4944984;28;20019;-78
2022/07/27 05:55:40;;;;;;;3.05;0.63;;;17.70;80.10;;;;;;4952185;28;20118;-82
2022/07/27 05:58:08;;;;;;;2.35;0.20;;;17.70;79.60;;;;;;4947040;28;20094;-79
2022/07/27 06:00:35;;;;;;;3.28;0.63;;;17.80;79.60;;;;;;4951831;28;20046;-77
2022/07/27 06:03:03;;;;;;;0.60;0.25;;;17.80;79.90;;;;;;4950989;28;20023;-85
2022/07/27 06:05:30;;;;;;;2.40;0.60;;;17.80;79.50;;;;;;4949148;28;20047;-81
2022/07/27 06:08:05;;;;;;;2.38;0.55;;;17.90;79.40;;;;;;4942142;29;20746;-83
2022/07/27 06:10:34;;;;;;;2.93;1.60;;;17.90;79.70;;;;;;4936961;28;20039;-81
2022/07/27 06:13:04;;;;;;;2.83;0.57;;;17.90;79.90;;;;;;4936389;28;20031;-84
2022/07/27 06:15:32;;;;;;;2.08;0.75;;;18.00;80.00;;;;;;4944375;29;20040;-81
2022/07/27 06:17:59;;;;;;;1.17;0.90;;;18.00;79.90;;;;;;4950459;28;20023;-84
2022/07/27 06:20:27;;;;;;;3.10;1.45;;;18.10;80.30;;;;;;4953793;28;20054;-82
2022/07/27 06:23:02;;;;;;;1.60;0.98;;;18.10;80.30;;;;;;4951448;28;20066;-84
2022/07/27 06:25:33;;;;;;;3.70;1.60;;;18.10;80.20;;;;;;4934850;29;20047;-80
2022/07/27 06:28:01;;;;;;;4.32;1.00;;;18.10;80.90;;;;;;4950199;28;20030;-86
2022/07/27 06:30:28;;;;;;;3.80;1.23;;;18.10;80.60;;;;;;4920839;29;20114;-83
2022/07/27 06:32:57;;;;;;;6.65;1.77;;;18.00;80.50;;;;;;4952070;28;20035;-83
2022/07/27 06:35:25;;;;;;;2.70;1.10;;;17.90;81.30;;;;;;4939909;29;20046;-83
2022/07/27 06:37:52;;;;;;;1.88;0.40;;;17.90;81.40;;;;;;4932988;29;20399;-84
2022/07/27 06:40:20;;;;;;;1.20;0.47;;;17.70;81.00;;;;;;4937903;29;20066;-79
2022/07/27 06:42:47;;;;;;;1.48;0.95;;;17.60;81.40;;;;;;4952693;29;20019;-83
2022/07/27 06:45:15;;;;;;;5.10;0.82;;;17.50;82.10;;;;;;4949595;29;20217;-84
2022/07/27 06:47:42;;;;;;;2.75;0.50;;;17.20;81.80;;;;;;4938947;28;20126;-78
2022/07/27 06:50:10;;;;;;;3.28;0.60;;;17.10;82.80;;;;;;4935147;28;20487;-84
2022/07/27 06:52:37;;;;;;;5.00;1.02;;;16.90;83.10;;;;;;4941889;29;20031;-79
2022/07/27 06:55:06;;;;;;;4.15;0.90;;;16.70;83.70;;;;;;4951174;28;20047;-79
2022/07/27 06:57:33;;;;;;;1.20;0.50;;;16.50;84.40;;;;;;4946842;29;20031;-80
2022/07/27 07:00:00;;;;;;;1.33;0.50;;;16.40;84.80;;;;;;4947110;29;20110;-77
2022/07/27 07:02:28;;;;;;;2.53;0.43;;;16.20;84.60;;;;;;4944078;28;20024;-80
2022/07/27 07:04:55;;;;;;;2.65;0.45;;;16.10;86.10;;;;;;4941320;29;20064;-80
2022/07/27 07:07:22;;;;;;;3.88;0.45;;;16.00;86.00;;;;;;4941911;28;20118;-82
2022/07/27 07:09:50;;;;;;;1.27;0.50;;;15.80;86.50;;;;;;4939992;29;20027;-79
2022/07/27 07:12:17;;;;;;;1.98;0.50;;;15.70;87.30;;;;;;4954268;29;20415;-83
2022/07/27 07:14:45;;;;;;;3.05;0.50;;;15.60;88.00;;;;;;4949271;28;20035;-86
2022/07/27 07:17:13;;;;;;;5.32;0.50;;;15.50;87.90;;;;;;4946770;29;20028;-78
2022/07/27 07:19:40;;;;;;;3.20;0.30;;;15.40;88.70;;;;;;4955809;29;20035;-76
2022/07/27 07:22:07;;;;;;;2.67;0.65;;;15.20;89.30;;;;;;4949757;28;20067;-84
2022/07/27 07:24:35;;;;;;;1.73;0.50;;;15.10;90.00;;;;;;4945847;29;20128;-80
2022/07/27 07:27:02;;;;;;;1.42;0.32;;;15.00;89.90;;;;;;4941860;29;20752;-82
2022/07/27 07:29:30;;;;;;;2.90;0.60;;;14.90;90.20;;;;;;4951399;28;20102;-81
2022/07/27 07:31:57;;;;;;;1.80;0.73;;;14.80;90.40;;;;;;4952645;28;20453;-84
2022/07/27 07:34:25;;;;;;;5.20;1.40;;;14.70;90.40;;;;;;4934530;29;20059;-84
2022/07/27 07:36:52;;;;;;;4.10;0.82;;;14.60;91.00;;;;;;4951302;29;20031;-80
2022/07/27 07:39:19;;;;;;;0.77;0.30;;;14.50;91.10;;;;;;4947174;28;20122;-85
2022/07/27 07:41:51;;;;;;;1.20;0.28;;;14.30;91.20;;;;;;4948997;29;20047;-83
2022/07/27 07:44:19;;;;;;;2.45;0.50;;;14.20;91.40;;;;;;4948752;28;20539;-85
2022/07/27 07:46:46;;;;;;;2.80;0.70;;;14.10;91.40;;;;;;4948433;28;20043;-78
2022/07/27 07:49:13;;;;;;;2.35;0.60;;;14.00;91.50;;;;;;4951963;28;20614;-85
2022/07/27 07:51:41;;;;;;;1.92;0.60;;;13.90;92.10;;;;;;4969465;28;20056;-80
2022/07/27 07:54:08;;;;;;;5.50;1.15;;;13.80;92.50;;;;;;4951680;29;20097;-82
2022/07/27 07:56:36;;;;;;;5.40;1.20;;;13.70;92.90;;;;;;4954358;29;20035;-83
2022/07/27 07:59:04;;;;;;;4.95;1.00;;;13.70;93.00;;;;;;4943166;28;20035;-81
2022/07/27 08:01:31;;;;;;;5.15;1.40;;;13.60;92.70;;;;;;4944553;28;20031;-79
2022/07/27 08:03:58;;;;;;;3.65;1.13;;;13.60;92.50;;;;;;4953501;29;20034;-86
2022/07/27 08:06:26;;;;;;;2.72;0.82;;;13.60;92.00;;;;;;4953012;28;20147;-86
2022/07/27 08:08:53;;;;;;;1.83;0.65;;;13.60;91.60;;;;;;4949794;29;20367;-88
2022/07/27 08:11:21;;;;;;;3.50;0.77;;;13.70;91.10;;;;;;4947559;29;20027;-86
2022/07/27 08:13:48;;;;;;;1.55;0.57;;;13.70;91.30;;;;;;4953827;28;20059;-86
2022/07/27 08:16:16;;;;;;;2.50;0.77;;;13.70;91.20;;;;;;4953613;28;20469;-82
2022/07/27 08:18:43;;;;;;;2.17;1.15;;;13.70;91.20;;;;;;4952886;29;20027;-82
2022/07/27 08:21:11;;;;;;;2.47;0.80;;;13.70;91.40;;;;;;4943934;28;20067;-80
2022/07/27 08:23:38;;;;;;;4.15;0.47;;;13.70;91.20;;;;;;4947008;29;20030;-80
2022/07/27 08:26:05;;;;;;;3.42;0.50;;;13.70;91.00;;;;;;4945235;29;20043;-83
2022/07/27 08:28:33;;;;;;;2.72;0.73;;;13.70;91.00;;;;;;4949325;29;20046;-80
2022/07/27 08:31:00;;;;;;;3.75;0.75;;;13.70;90.90;;;;;;4938793;29;20110;-83
2022/07/27 08:33:28;;;;;;;1.95;0.30;;;13.70;90.80;;;;;;4939279;29;20122;-81
2022/07/27 08:35:56;;;;;;;1.45;0.32;;;13.70;90.80;;;;;;4953991;29;20057;-80
2022/07/27 08:38:26;;;;;;;4.55;0.85;;;13.70;90.90;;;;;;4953664;29;20039;-81
2022/07/27 08:40:55;;;;;;;2.20;0.35;;;13.70;91.00;;;;;;4951448;29;20055;-82
2022/07/27 08:43:24;;;;;;;0.75;0.22;;;13.60;91.10;;;;;;4943896;29;20680;-81
2022/07/27 08:45:57;;;;;;;5.35;0.38;;;13.60;91.20;;;;;;4954715;28;20050;-81
2022/07/27 08:48:26;;;;;;;1.05;0.20;;;13.50;91.50;;;;;;4951704;29;20443;-77
2022/07/27 08:50:54;;;;;;;1.30;0.25;;;13.40;91.40;;;;;;4934944;29;20035;-82
2022/07/27 08:53:22;;;;;;;3.17;0.30;;;13.30;91.50;;;;;;4937298;29;20024;-82
2022/07/27 08:55:50;;;;;;;1.13;0.30;;;13.30;91.60;;;;;;4945579;29;20038;-80
2022/07/27 08:58:17;;;;;;;1.95;0.30;;;13.20;91.90;;;;;;4949068;28;20415;-80
2022/07/27 09:00:48;;;;;;;0.57;0.40;;;13.10;92.10;;;;;;4948099;29;20083;-80
2022/07/27 09:03:17;;;;;;;1.35;0.40;;;13.10;92.40;;;;;;4940104;29;20039;-80
2022/07/27 09:05:47;;;;;;;1.02;0.30;;;13.00;92.50;;;;;;4954073;29;20043;-81
2022/07/27 09:08:20;;;;;;;2.53;0.50;;;12.90;92.70;;;;;;4951440;29;20027;-80
2022/07/27 09:10:47;;;;;;;5.03;0.50;;;12.80;92.70;;;;;;4954017;29;20054;-81
2022/07/27 09:13:29;;;;;;;2.28;0.40;;;12.70;93.00;;;;;;4954260;29;20035;-82
2022/07/27 09:16:06;;;;;;;4.13;0.50;;;12.60;92.90;;;;;;4953596;29;20031;-81
2022/07/27 09:18:36;;;;;;;1.38;0.40;;;12.60;93.40;;;;;;4954008;29;20066;-80
2022/07/27 09:21:18;;;;;;;1.77;0.43;;;12.50;93.50;;;;;;4953626;28;20038;-81
2022/07/27 09:23:51;;;;;;;1.15;0.43;;;12.40;93.30;;;;;;4945930;28;20054;-81
2022/07/27 09:26:22;;;;;;;3.10;0.80;;;12.30;93.10;;;;;;4954000;29;20078;-80
2022/07/27 09:28:59;;;;;;;2.65;0.60;;;12.30;93.40;;;;;;4951663;29;20102;-82
2022/07/27 09:31:26;;;;;;;2.33;0.40;;;12.20;93.50;;;;;;4953964;29;20031;-82
2022/07/27 09:33:57;;;;;;;2.55;0.50;;;12.20;93.50;;;;;;4952609;28;20179;-83
2022/07/27 09:36:27;;;;;;;1.67;0.50;;;12.20;93.50;;;;;;4950031;29;20031;-81
2022/07/27 09:39:06;;;;;;;0.82;0.40;;;12.10;93.70;;;;;;4948676;29;20051;-81
2022/07/27 09:41:44;;;;;;;0.32;0.20;;;12.10;93.40;;;;;;4950181;29;20032;-81
2022/07/27 09:44:12;;;;;;;0.80;0.45;;;12.20;93.30;;;;;;4947665;29;20035;-80
2022/07/27 09:46:42;;;;;;;1.58;0.20;;;12.20;93.40;;;;;;4954669;29;20055;-80
2022/07/27 09:49:29;;;;;;;0.20;0.10;;;12.20;93.60;;;;;;4951570;29;20475;-81
2022/07/27 09:51:58;;;;;;;0.70;0.10;;;12.20;93.60;;;;;;4940045;28;20038;-81
2022/07/27 09:54:25;;;;;;;2.25;0.40;;;12.10;93.60;;;;;;4936157;29;20078;-81
2022/07/27 09:57:01;;;;;;;1.38;0.10;;;12.10;93.80;;;;;;4937969;29;20031;-81
2022/07/27 09:59:29;;;;;;;1.05;0.20;;;12.00;94.10;;;;;;4953334;29;20434;-82
2022/07/27 10:01:57;;;;;;;0.35;0.10;;;12.00;94.00;;;;;;4947584;28;20043;-81
2022/07/27 10:04:25;;;;;;;2.88;0.73;;;11.90;94.00;;;;;;4939484;29;20102;-80
2022/07/27 10:06:52;;;;;;;1.88;0.30;;;11.80;94.10;;;;;;4954424;28;20062;-83
2022/07/27 10:09:20;;;;;;;1.02;0.38;;;11.80;94.80;;;;;;4936632;29;20490;-80
2022/07/27 10:11:48;;;;;;;0.30;0.20;;;11.70;95.00;;;;;;4950102;28;20031;-81
2022/07/27 10:14:16;;;;;;;2.00;0.40;;;11.60;95.10;;;;;;4947152;29;20066;-79
2022/07/27 10:16:49;;;;;;;2.40;0.30;;;11.50;95.40;;;;;;4940877;29;20056;-80
2022/07/27 10:19:49;;;;;;;2.97;0.77;;;11.40;95.80;;;;;;4949403;29;20118;-80
2022/07/27 10:22:36;;;;;;;1.95;0.40;;;11.30;96.10;;;;;;4952392;29;20046;-82
2022/07/27 10:25:04;;;;;;;2.85;0.40;;;11.10;96.30;;;;;;4946324;28;20035;-81
2022/07/27 10:27:31;;;;;;;0.93;0.40;;;11.10;96.40;;;;;;4952741;29;20446;-80
2022/07/27 10:29:59;;;;;;;0.75;0.35;;;11.00;96.80;;;;;;4946984;29;20110;-79
2022/07/27 10:32:31;;;;;;;0.63;0.20;;;10.90;96.50;;;;;;4939655;28;20174;-82
2022/07/27 10:35:00;;;;;;;2.15;0.30;;;10.90;96.60;;;;;;4935583;29;20060;-80
2022/07/27 10:37:30;;;;;;;12.10;0.50;;;10.90;96.60;;;;;;4935690;29;20098;-81
2022/07/27 10:42:51;;;;;;;1.65;0.22;;;10.90;96.70;;;;;;4940077;29;20039;-80
2022/07/27 10:45:18;;;;;;;0.38;0.20;;;10.90;96.60;;;;;;4934397;29;20027;-80
2022/07/27 10:47:49;;;;;;;0.57;0.10;;;11.00;96.70;;;;;;4934640;29;20066;-81
2022/07/27 10:50:16;;;;;;;0.98;0.50;;;11.00;96.60;;;;;;4935973;29;20058;-80
2022/07/27 10:52:45;;;;;;;0.35;0.25;;;11.00;96.90;;;;;;4939846;29;20041;-81
2022/07/27 10:55:32;;;;;;;1.27;0.25;;;10.90;96.90;;;;;;4947831;29;20398;-80
2022/07/27 10:58:15;;;;;;;0.22;0.20;;;10.90;97.00;;;;;;4948023;29;20035;-80
2022/07/27 11:00:51;;;;;;;1.08;0.20;;;10.90;96.80;;;;;;4945108;29;20058;-79
2022/07/27 11:03:34;;;;;;;0.38;0.38;;;10.90;96.90;;;;;;4944769;29;20047;-78
2022/07/27 11:06:07;;;;;;;0.93;0.43;;;10.80;97.00;;;;;;4948609;29;20129;-80
2022/07/27 11:08:36;;;;;;;1.10;0.63;;;10.70;97.20;;;;;;4950552;29;20494;-80
2022/07/27 11:11:06;;;;;;;0.60;0.40;;;10.70;97.50;;;;;;4952542;28;21760;-78
2022/07/27 11:13:34;;;;;;;1.05;0.57;;;10.60;97.50;;;;;;4943986;28;20031;-80
2022/07/27 11:16:05;;;;;;;1.13;0.35;;;10.50;97.60;;;;;;4952302;29;20148;-78
2022/07/27 11:18:38;;;;;;;1.35;0.38;;;10.50;97.90;;;;;;4949916;28;20035;-80
2022/07/27 11:21:23;;;;;;;2.22;0.50;;;10.40;98.10;;;;;;4951912;28;20035;-79
2022/07/27 11:24:18;;;;;;;0.75;0.40;;;10.40;98.20;;;;;;4946019;29;20086;-80
2022/07/27 11:26:48;;;;;;;0.75;0.40;;;10.30;98.20;;;;;;4946900;28;20083;-79
2022/07/27 11:29:18;;;;;;;0.68;0.30;;;10.20;98.50;;;;;;4939475;29;20036;-81
2022/07/27 11:31:50;;;;;;;0.45;0.40;;;10.20;98.60;;;;;;4944876;28;20035;-79
2022/07/27 11:34:25;;;;;;;1.45;0.30;;;10.20;98.90;;;;;;4943346;29;20069;-78
2022/07/27 11:36:53;;;;;;;2.47;0.40;;;10.10;98.90;;;;;;4941594;29;20089;-80
2022/07/27 11:39:26;;;;;;;0.40;0.10;;;10.10;99.00;;;;;;4951626;28;20043;-80
2022/07/27 11:41:59;;;;;;;0.35;0.30;;;10.10;99.30;;;;;;4951782;28;20035;-81
2022/07/27 11:44:29;;;;;;;0.63;0.30;;;10.10;99.20;;;;;;4941667;29;20074;-78
2022/07/27 11:46:57;;;;;;;2.25;0.17;;;10.10;99.10;;;;;;4951714;29;20058;-79
2022/07/27 11:49:30;;;;;;;0.28;0.20;;;10.10;99.00;;;;;;4948923;29;20074;-79
2022/07/27 11:52:03;;;;;;;0.52;0.30;;;10.10;99.20;;;;;;4951758;29;20042;-80
2022/07/27 11:54:36;;;;;;;0.38;0.30;;;10.10;99.20;;;;;;4934136;29;20032;-78
2022/07/27 11:57:15;;;;;;;1.13;0.30;;;10.10;99.30;;;;;;4938681;29;20032;-78
2022/07/27 11:59:44;;;;;;;2.25;0.32;;;10.10;99.30;;;;;;4943583;29;20385;-79
2022/07/27 12:02:16;;;;;;;1.75;0.20;;;10.10;99.20;;;;;;4947816;28;20355;-79
2022/07/27 12:04:46;;;;;;;0.77;0.30;;;10.10;99.10;;;;;;4941618;29;20119;-80
2022/07/27 12:07:30;;;;;;;0.82;0.40;;;10.10;99.20;;;;;;4946464;29;20071;-79
2022/07/27 12:10:05;;;;;;;2.80;0.85;;;10.10;99.30;;;;;;4941163;29;20047;-80
2022/07/27 12:12:34;;;;;;;0.82;0.43;;;10.10;99.30;;;;;;4937363;29;20509;-78
2022/07/27 12:15:17;;;;;;;0.80;0.50;;;10.00;99.40;;;;;;4948571;29;20073;-78
2022/07/27 12:17:46;;;;;;;1.02;0.85;;;10.00;99.30;;;;;;4951094;29;20122;-81
2022/07/27 12:20:23;;;;;;;0.93;0.73;;;9.90;99.70;;;;;;4946929;28;20396;-79
2022/07/27 12:22:54;;;;;;;1.80;0.40;;;9.80;99.90;;;;;;4947179;29;20038;-78
2022/07/27 12:25:31;;;;;;;1.38;0.40;;;9.80;99.90;;;;;;4950557;29;20036;-78
2022/07/27 12:28:11;;;;;;;0.88;0.43;;;9.70;99.90;;;;;;4938775;29;20058;-77
2022/07/27 12:30:47;;;;;;;1.38;0.40;;;9.70;99.90;;;;;;4952449;29;20027;-78
2022/07/27 12:33:28;;;;;;;;;;;9.70;99.90;;;;;;4947668;28;20512;-79
2022/07/27 12:35:56;;;;;;;0.80;0.50;;;9.60;99.90;;;;;;4948885;29;20338;-79
2022/07/27 12:38:24;;;;;;;1.27;0.70;;;9.60;99.90;;;;;;4945657;28;20030;-78
2022/07/27 12:40:55;;;;;;;1.83;0.60;;;9.60;99.90;;;;;;4950583;28;20109;-78
2022/07/27 12:43:25;;;;;;;1.10;0.60;;;9.50;99.90;;;;;;4942388;28;20031;-80
2022/07/27 12:45:54;;;;;;;1.42;0.95;;;9.40;99.90;;;;;;4940503;28;20078;-79
2022/07/27 12:48:37;;;;;;;2.80;1.60;;;9.30;99.90;;;;;;4948530;29;20483;-79
2022/07/27 12:51:06;;;;;;;2.22;1.13;;;9.20;99.90;;;;;;4936112;29;20398;-79
2022/07/27 12:53:35;;;;;;;1.42;0.88;;;9.20;99.90;;;;;;4945591;29;20741;-80
2022/07/27 12:56:12;;;;;;;1.45;0.50;;;9.10;99.90;;;;;;4935455;29;20107;-78
2022/07/27 12:58:40;;;;;;;1.83;0.50;;;9.10;99.90;;;;;;4948242;29;20086;-76
2022/07/27 13:01:07;;;;;;;2.15;0.93;;;9.10;99.90;;;;;;4953907;29;20065;-75
2022/07/27 13:03:34;;;;;;;1.38;0.95;;;9.10;99.90;;;;;;4944945;28;20459;-75